sensor_id;sensor_type;location;lat;lon;timestamp;P1;durP1;ratioP1;P2;durP2;ratioP2
68976;SDS011;56029;52.568;13.588;2022-09-12T00:00:03;12.53;;;7.60;;
68976;SDS011;56029;52.568;13.588;2022-09-12T00:02:51;13.50;;;7.60;;
68976;SDS011;56029;52.568;13.588;2022-09-12T00:05:21;11.88;;;7.38;;
68976;SDS011;56029;52.568;13.588;2022-09-12T00:07:47;13.70;;;7.60;;
68976;SDS011;56029;52.568;13.588;2022-09-12T00:10:13;12.00;;;7.13;;
68976;SDS011;56029;52.568;13.588;2022-09-12T00:12:39;12.23;;;7.10;;
68976;SDS011;56029;52.568;13.588;2022-09-12T00:15:04;12.37;;;7.10;;
68976;SDS011;56029;52.568;13.588;2022-09-12T00:17:33;13.93;;;7.60;;
68976;SDS011;56029;52.568;13.588;2022-09-12T00:19:59;11.45;;;6.90;;
68976;SDS011;56029;52.568;13.588;2022-09-12T00:22:25;12.17;;;7.37;;
68976;SDS011;56029;52.568;13.588;2022-09-12T00:24:51;12.80;;;7.50;;
68976;SDS011;56029;52.568;13.588;2022-09-12T00:27:17;12.00;;;7.40;;
68976;SDS011;56029;52.568;13.588;2022-09-12T00:29:42;12.83;;;7.23;;
68976;SDS011;56029;52.568;13.588;2022-09-12T00:32:08;14.37;;;7.40;;
68976;SDS011;56029;52.568;13.588;2022-09-12T00:34:34;13.02;;;7.60;;
68976;SDS011;56029;52.568;13.588;2022-09-12T00:37:00;13.35;;;7.20;;
68976;SDS011;56029;52.568;13.588;2022-09-12T00:39:26;12.50;;;7.13;;
68976;SDS011;56029;52.568;13.588;2022-09-12T00:41:51;11.77;;;6.93;;
68976;SDS011;56029;52.568;13.588;2022-09-12T00:46:46;11.70;;;6.90;;
68976;SDS011;56029;52.568;13.588;2022-09-12T00:51:57;12.80;;;7.50;;
68976;SDS011;56029;52.568;13.588;2022-09-12T00:54:37;14.00;;;7.60;;
68976;SDS011;56029;52.568;13.588;2022-09-12T00:57:07;13.85;;;8.00;;
68976;SDS011;56029;52.568;13.588;2022-09-12T00:59:37;12.90;;;7.60;;
68976;SDS011;56029;52.568;13.588;2022-09-12T01:02:09;13.25;;;6.85;;
68976;SDS011;56029;52.568;13.588;2022-09-12T01:04:35;11.75;;;6.60;;
68976;SDS011;56029;52.568;13.588;2022-09-12T01:07:03;11.20;;;6.75;;
68976;SDS011;56029;52.568;13.588;2022-09-12T01:09:30;10.90;;;6.45;;
68976;SDS011;56029;52.568;13.588;2022-09-12T01:11:56;11.90;;;6.80;;
68976;SDS011;56029;52.568;13.588;2022-09-12T01:14:22;12.00;;;6.82;;
68976;SDS011;56029;52.568;13.588;2022-09-12T01:16:48;12.15;;;6.95;;
68976;SDS011;56029;52.568;13.588;2022-09-12T01:27:15;12.10;;;6.80;;
68976;SDS011;56029;52.568;13.588;2022-09-12T01:30:04;11.07;;;6.70;;
68976;SDS011;56029;52.568;13.588;2022-09-12T01:35:42;11.20;;;6.13;;
68976;SDS011;56029;52.568;13.588;2022-09-12T01:43:56;10.18;;;6.00;;
68976;SDS011;56029;52.568;13.588;2022-09-12T01:46:37;11.30;;;6.65;;
68976;SDS011;56029;52.568;13.588;2022-09-12T01:49:12;11.30;;;6.50;;
68976;SDS011;56029;52.568;13.588;2022-09-12T01:51:47;11.13;;;6.40;;
68976;SDS011;56029;52.568;13.588;2022-09-12T01:54:43;11.65;;;6.70;;
68976;SDS011;56029;52.568;13.588;2022-09-12T01:57:15;12.07;;;6.78;;
68976;SDS011;56029;52.568;13.588;2022-09-12T01:59:48;11.90;;;7.00;;
68976;SDS011;56029;52.568;13.588;2022-09-12T02:02:24;13.17;;;7.00;;
68976;SDS011;56029;52.568;13.588;2022-09-12T02:04:59;12.85;;;7.25;;
68976;SDS011;56029;52.568;13.588;2022-09-12T02:07:32;13.65;;;7.25;;
68976;SDS011;56029;52.568;13.588;2022-09-12T02:12:41;12.55;;;6.88;;
68976;SDS011;56029;52.568;13.588;2022-09-12T02:15:14;12.23;;;6.90;;
68976;SDS011;56029;52.568;13.588;2022-09-12T02:17:43;12.20;;;6.95;;
68976;SDS011;56029;52.568;13.588;2022-09-12T02:20:20;11.75;;;6.70;;
68976;SDS011;56029;52.568;13.588;2022-09-12T02:22:49;11.32;;;6.35;;
68976;SDS011;56029;52.568;13.588;2022-09-12T02:25:18;10.70;;;5.95;;
68976;SDS011;56029;52.568;13.588;2022-09-12T02:27:56;11.13;;;5.90;;
68976;SDS011;56029;52.568;13.588;2022-09-12T02:30:26;10.85;;;6.43;;
68976;SDS011;56029;52.568;13.588;2022-09-12T02:33:01;10.95;;;6.57;;
68976;SDS011;56029;52.568;13.588;2022-09-12T02:38:04;10.82;;;6.07;;
68976;SDS011;56029;52.568;13.588;2022-09-12T02:40:34;12.47;;;6.27;;
68976;SDS011;56029;52.568;13.588;2022-09-12T02:43:00;11.23;;;6.10;;
68976;SDS011;56029;52.568;13.588;2022-09-12T02:45:28;11.88;;;6.90;;
68976;SDS011;56029;52.568;13.588;2022-09-12T02:50:31;10.02;;;5.63;;
68976;SDS011;56029;52.568;13.588;2022-09-12T02:52:57;10.73;;;5.80;;
68976;SDS011;56029;52.568;13.588;2022-09-12T02:55:28;9.55;;;5.55;;
68976;SDS011;56029;52.568;13.588;2022-09-12T02:57:55;9.55;;;5.53;;
68976;SDS011;56029;52.568;13.588;2022-09-12T03:00:21;10.00;;;5.63;;
68976;SDS011;56029;52.568;13.588;2022-09-12T03:05:51;10.93;;;6.20;;
68976;SDS011;56029;52.568;13.588;2022-09-12T03:08:34;10.35;;;6.20;;
68976;SDS011;56029;52.568;13.588;2022-09-12T03:27:14;9.40;;;5.30;;
68976;SDS011;56029;52.568;13.588;2022-09-12T03:29:46;10.63;;;5.78;;
68976;SDS011;56029;52.568;13.588;2022-09-12T03:32:13;10.70;;;5.80;;
68976;SDS011;56029;52.568;13.588;2022-09-12T03:34:39;11.65;;;6.10;;
68976;SDS011;56029;52.568;13.588;2022-09-12T03:37:04;11.13;;;5.60;;
68976;SDS011;56029;52.568;13.588;2022-09-12T03:39:31;10.02;;;5.60;;
68976;SDS011;56029;52.568;13.588;2022-09-12T03:41:56;9.37;;;5.47;;
68976;SDS011;56029;52.568;13.588;2022-09-12T03:44:22;9.38;;;5.43;;
68976;SDS011;56029;52.568;13.588;2022-09-12T03:46:49;9.77;;;5.50;;
68976;SDS011;56029;52.568;13.588;2022-09-12T03:49:15;12.10;;;6.25;;
68976;SDS011;56029;52.568;13.588;2022-09-12T03:51:41;9.88;;;6.10;;
68976;SDS011;56029;52.568;13.588;2022-09-12T03:54:08;11.63;;;6.28;;
68976;SDS011;56029;52.568;13.588;2022-09-12T03:56:34;15.90;;;6.93;;
68976;SDS011;56029;52.568;13.588;2022-09-12T03:59:00;12.80;;;7.00;;
68976;SDS011;56029;52.568;13.588;2022-09-12T04:01:26;12.88;;;6.80;;
68976;SDS011;56029;52.568;13.588;2022-09-12T04:03:51;12.77;;;7.13;;
68976;SDS011;56029;52.568;13.588;2022-09-12T04:06:18;13.82;;;7.75;;
68976;SDS011;56029;52.568;13.588;2022-09-12T04:08:49;11.75;;;6.78;;
68976;SDS011;56029;52.568;13.588;2022-09-12T04:11:17;12.80;;;7.00;;
68976;SDS011;56029;52.568;13.588;2022-09-12T04:13:44;13.27;;;6.95;;
68976;SDS011;56029;52.568;13.588;2022-09-12T04:16:11;13.02;;;7.13;;
68976;SDS011;56029;52.568;13.588;2022-09-12T04:18:37;14.25;;;7.40;;
68976;SDS011;56029;52.568;13.588;2022-09-12T04:21:07;13.97;;;7.40;;
68976;SDS011;56029;52.568;13.588;2022-09-12T04:23:35;14.00;;;7.38;;
68976;SDS011;56029;52.568;13.588;2022-09-12T04:26:01;15.77;;;7.33;;
68976;SDS011;56029;52.568;13.588;2022-09-12T04:28:27;14.10;;;7.57;;
68976;SDS011;56029;52.568;13.588;2022-09-12T04:30:54;12.88;;;7.22;;
68976;SDS011;56029;52.568;13.588;2022-09-12T04:33:20;13.60;;;7.60;;
68976;SDS011;56029;52.568;13.588;2022-09-12T04:35:47;15.68;;;7.60;;
68976;SDS011;56029;52.568;13.588;2022-09-12T04:38:13;14.17;;;7.47;;
68976;SDS011;56029;52.568;13.588;2022-09-12T04:40:38;14.48;;;7.65;;
68976;SDS011;56029;52.568;13.588;2022-09-12T04:43:04;14.40;;;7.70;;
68976;SDS011;56029;52.568;13.588;2022-09-12T04:45:31;13.77;;;7.72;;
68976;SDS011;56029;52.568;13.588;2022-09-12T04:47:57;14.23;;;7.72;;
68976;SDS011;56029;52.568;13.588;2022-09-12T04:50:23;14.20;;;7.83;;
68976;SDS011;56029;52.568;13.588;2022-09-12T04:52:49;14.30;;;7.70;;
68976;SDS011;56029;52.568;13.588;2022-09-12T04:55:15;13.18;;;7.28;;
68976;SDS011;56029;52.568;13.588;2022-09-12T04:57:41;14.90;;;7.37;;
68976;SDS011;56029;52.568;13.588;2022-09-12T05:00:07;13.90;;;7.50;;
68976;SDS011;56029;52.568;13.588;2022-09-12T05:02:37;14.15;;;7.65;;
68976;SDS011;56029;52.568;13.588;2022-09-12T05:05:04;14.48;;;7.22;;
68976;SDS011;56029;52.568;13.588;2022-09-12T05:07:30;13.00;;;7.27;;
68976;SDS011;56029;52.568;13.588;2022-09-12T05:09:56;14.57;;;7.70;;
68976;SDS011;56029;52.568;13.588;2022-09-12T05:12:22;13.18;;;7.53;;
68976;SDS011;56029;52.568;13.588;2022-09-12T05:14:48;14.43;;;7.80;;
68976;SDS011;56029;52.568;13.588;2022-09-12T05:17:14;13.60;;;7.30;;
68976;SDS011;56029;52.568;13.588;2022-09-12T05:19:40;12.27;;;6.47;;
68976;SDS011;56029;52.568;13.588;2022-09-12T05:22:06;13.68;;;7.50;;
68976;SDS011;56029;52.568;13.588;2022-09-12T05:24:31;14.13;;;7.40;;
68976;SDS011;56029;52.568;13.588;2022-09-12T05:26:57;14.50;;;7.70;;
68976;SDS011;56029;52.568;13.588;2022-09-12T05:29:23;14.98;;;8.10;;
68976;SDS011;56029;52.568;13.588;2022-09-12T05:31:49;14.75;;;8.05;;
68976;SDS011;56029;52.568;13.588;2022-09-12T05:34:17;14.90;;;7.82;;
68976;SDS011;56029;52.568;13.588;2022-09-12T05:36:43;14.05;;;7.40;;
68976;SDS011;56029;52.568;13.588;2022-09-12T05:39:09;13.90;;;7.67;;
68976;SDS011;56029;52.568;13.588;2022-09-12T05:41:34;15.03;;;8.27;;
68976;SDS011;56029;52.568;13.588;2022-09-12T05:44:01;15.30;;;8.05;;
68976;SDS011;56029;52.568;13.588;2022-09-12T05:46:34;16.88;;;8.43;;
68976;SDS011;56029;52.568;13.588;2022-09-12T05:49:05;15.37;;;8.30;;
68976;SDS011;56029;52.568;13.588;2022-09-12T05:51:34;15.30;;;8.00;;
68976;SDS011;56029;52.568;13.588;2022-09-12T05:54:02;15.65;;;8.60;;
68976;SDS011;56029;52.568;13.588;2022-09-12T05:56:30;16.17;;;8.75;;
68976;SDS011;56029;52.568;13.588;2022-09-12T05:58:58;16.00;;;8.45;;
68976;SDS011;56029;52.568;13.588;2022-09-12T06:01:29;16.60;;;8.60;;
68976;SDS011;56029;52.568;13.588;2022-09-12T06:03:57;16.00;;;8.60;;
68976;SDS011;56029;52.568;13.588;2022-09-12T06:06:27;16.83;;;9.23;;
68976;SDS011;56029;52.568;13.588;2022-09-12T06:08:56;17.33;;;9.00;;
68976;SDS011;56029;52.568;13.588;2022-09-12T06:11:24;18.35;;;8.98;;
68976;SDS011;56029;52.568;13.588;2022-09-12T06:13:52;17.30;;;9.07;;
68976;SDS011;56029;52.568;13.588;2022-09-12T06:16:21;16.10;;;8.40;;
68976;SDS011;56029;52.568;13.588;2022-09-12T06:18:50;16.30;;;8.85;;
68976;SDS011;56029;52.568;13.588;2022-09-12T06:21:17;14.63;;;8.33;;
68976;SDS011;56029;52.568;13.588;2022-09-12T06:23:43;15.27;;;8.38;;
68976;SDS011;56029;52.568;13.588;2022-09-12T06:26:10;16.25;;;8.80;;
68976;SDS011;56029;52.568;13.588;2022-09-12T06:28:37;15.37;;;8.00;;
68976;SDS011;56029;52.568;13.588;2022-09-12T06:31:08;15.38;;;8.95;;
68976;SDS011;56029;52.568;13.588;2022-09-12T06:33:46;15.05;;;8.45;;
68976;SDS011;56029;52.568;13.588;2022-09-12T06:36:17;14.50;;;8.30;;
68976;SDS011;56029;52.568;13.588;2022-09-12T06:38:45;15.32;;;8.65;;
68976;SDS011;56029;52.568;13.588;2022-09-12T06:41:13;17.73;;;8.50;;
68976;SDS011;56029;52.568;13.588;2022-09-12T06:43:40;15.02;;;8.20;;
68976;SDS011;56029;52.568;13.588;2022-09-12T06:46:06;16.83;;;9.07;;
68976;SDS011;56029;52.568;13.588;2022-09-12T06:48:32;14.65;;;8.32;;
68976;SDS011;56029;52.568;13.588;2022-09-12T06:50:59;16.27;;;9.23;;
68976;SDS011;56029;52.568;13.588;2022-09-12T06:53:27;14.88;;;8.35;;
68976;SDS011;56029;52.568;13.588;2022-09-12T06:56:01;15.05;;;8.32;;
68976;SDS011;56029;52.568;13.588;2022-09-12T06:58:28;14.88;;;8.68;;
68976;SDS011;56029;52.568;13.588;2022-09-12T07:01:04;15.27;;;8.70;;
68976;SDS011;56029;52.568;13.588;2022-09-12T07:03:31;15.07;;;8.83;;
68976;SDS011;56029;52.568;13.588;2022-09-12T07:06:04;14.88;;;8.90;;
68976;SDS011;56029;52.568;13.588;2022-09-12T07:08:32;15.80;;;9.40;;
68976;SDS011;56029;52.568;13.588;2022-09-12T07:10:59;16.42;;;9.20;;
68976;SDS011;56029;52.568;13.588;2022-09-12T07:13:32;15.30;;;8.95;;
68976;SDS011;56029;52.568;13.588;2022-09-12T07:16:00;15.63;;;9.00;;
68976;SDS011;56029;52.568;13.588;2022-09-12T07:18:27;15.20;;;8.95;;
68976;SDS011;56029;52.568;13.588;2022-09-12T07:20:53;15.88;;;9.70;;
68976;SDS011;56029;52.568;13.588;2022-09-12T07:23:19;15.83;;;9.57;;
68976;SDS011;56029;52.568;13.588;2022-09-12T07:25:51;15.23;;;9.63;;
68976;SDS011;56029;52.568;13.588;2022-09-12T07:28:18;16.52;;;9.68;;
68976;SDS011;56029;52.568;13.588;2022-09-12T07:30:43;15.97;;;9.90;;
68976;SDS011;56029;52.568;13.588;2022-09-12T07:33:09;17.10;;;10.60;;
68976;SDS011;56029;52.568;13.588;2022-09-12T07:35:34;17.67;;;10.50;;
68976;SDS011;56029;52.568;13.588;2022-09-12T07:38:00;18.35;;;10.20;;
68976;SDS011;56029;52.568;13.588;2022-09-12T07:40:26;17.53;;;10.93;;
68976;SDS011;56029;52.568;13.588;2022-09-12T07:42:51;16.55;;;10.60;;
68976;SDS011;56029;52.568;13.588;2022-09-12T07:45:17;16.63;;;10.43;;
68976;SDS011;56029;52.568;13.588;2022-09-12T07:47:42;17.43;;;10.40;;
68976;SDS011;56029;52.568;13.588;2022-09-12T07:50:08;14.55;;;9.65;;
68976;SDS011;56029;52.568;13.588;2022-09-12T07:52:34;15.27;;;9.97;;
68976;SDS011;56029;52.568;13.588;2022-09-12T07:55:00;16.33;;;9.25;;
68976;SDS011;56029;52.568;13.588;2022-09-12T07:57:26;12.93;;;8.13;;
68976;SDS011;56029;52.568;13.588;2022-09-12T07:59:52;13.47;;;8.17;;
68976;SDS011;56029;52.568;13.588;2022-09-12T08:02:17;12.40;;;7.85;;
68976;SDS011;56029;52.568;13.588;2022-09-12T08:04:43;13.15;;;7.93;;
68976;SDS011;56029;52.568;13.588;2022-09-12T08:07:09;11.10;;;6.97;;
68976;SDS011;56029;52.568;13.588;2022-09-12T08:09:35;11.53;;;6.77;;
68976;SDS011;56029;52.568;13.588;2022-09-12T08:12:00;10.32;;;6.43;;
68976;SDS011;56029;52.568;13.588;2022-09-12T08:14:26;9.23;;;6.03;;
68976;SDS011;56029;52.568;13.588;2022-09-12T08:16:52;9.97;;;6.10;;
68976;SDS011;56029;52.568;13.588;2022-09-12T08:19:18;8.38;;;4.97;;
68976;SDS011;56029;52.568;13.588;2022-09-12T08:21:43;8.13;;;5.07;;
68976;SDS011;56029;52.568;13.588;2022-09-12T08:24:09;12.15;;;6.18;;
68976;SDS011;56029;52.568;13.588;2022-09-12T08:26:36;9.55;;;5.10;;
68976;SDS011;56029;52.568;13.588;2022-09-12T08:29:02;10.13;;;5.77;;
68976;SDS011;56029;52.568;13.588;2022-09-12T08:31:28;9.45;;;5.90;;
68976;SDS011;56029;52.568;13.588;2022-09-12T08:34:00;9.63;;;5.35;;
68976;SDS011;56029;52.568;13.588;2022-09-12T08:36:27;8.85;;;5.25;;
68976;SDS011;56029;52.568;13.588;2022-09-12T08:38:59;8.27;;;4.57;;
68976;SDS011;56029;52.568;13.588;2022-09-12T08:41:28;8.20;;;4.28;;
68976;SDS011;56029;52.568;13.588;2022-09-12T08:52:38;5.87;;;3.47;;
68976;SDS011;56029;52.568;13.588;2022-09-12T08:55:34;5.57;;;3.10;;
68976;SDS011;56029;52.568;13.588;2022-09-12T08:58:15;5.45;;;3.15;;
68976;SDS011;56029;52.568;13.588;2022-09-12T09:00:46;5.47;;;3.30;;
68976;SDS011;56029;52.568;13.588;2022-09-12T09:09:22;4.88;;;3.00;;
68976;SDS011;56029;52.568;13.588;2022-09-12T09:12:04;4.60;;;2.80;;
68976;SDS011;56029;52.568;13.588;2022-09-12T09:17:52;4.28;;;2.67;;
68976;SDS011;56029;52.568;13.588;2022-09-12T09:23:16;4.88;;;2.83;;
68976;SDS011;56029;52.568;13.588;2022-09-12T09:29:19;3.70;;;2.33;;
68976;SDS011;56029;52.568;13.588;2022-09-12T09:31:48;4.85;;;2.50;;
68976;SDS011;56029;52.568;13.588;2022-09-12T09:34:18;4.93;;;2.70;;
68976;SDS011;56029;52.568;13.588;2022-09-12T09:36:50;4.38;;;2.80;;
68976;SDS011;56029;52.568;13.588;2022-09-12T09:42:03;2.70;;;2.00;;
68976;SDS011;56029;52.568;13.588;2022-09-12T09:44:45;3.53;;;2.40;;
68976;SDS011;56029;52.568;13.588;2022-09-12T09:47:12;4.63;;;2.60;;
68976;SDS011;56029;52.568;13.588;2022-09-12T09:49:38;3.90;;;2.40;;
68976;SDS011;56029;52.568;13.588;2022-09-12T09:52:05;4.20;;;2.30;;
68976;SDS011;56029;52.568;13.588;2022-09-12T09:54:36;3.97;;;2.65;;
68976;SDS011;56029;52.568;13.588;2022-09-12T10:00:20;6.20;;;2.90;;
68976;SDS011;56029;52.568;13.588;2022-09-12T10:03:02;5.18;;;2.90;;
68976;SDS011;56029;52.568;13.588;2022-09-12T10:05:32;3.65;;;2.63;;
68976;SDS011;56029;52.568;13.588;2022-09-12T10:08:02;3.22;;;1.50;;
68976;SDS011;56029;52.568;13.588;2022-09-12T10:10:30;2.33;;;1.60;;
68976;SDS011;56029;52.568;13.588;2022-09-12T10:13:06;2.40;;;1.70;;
68976;SDS011;56029;52.568;13.588;2022-09-12T10:15:34;3.37;;;1.67;;
68976;SDS011;56029;52.568;13.588;2022-09-12T10:18:00;3.10;;;2.00;;
68976;SDS011;56029;52.568;13.588;2022-09-12T10:25:51;2.78;;;2.10;;
68976;SDS011;56029;52.568;13.588;2022-09-12T10:28:22;3.33;;;1.93;;
68976;SDS011;56029;52.568;13.588;2022-09-12T10:30:53;2.10;;;1.60;;
68976;SDS011;56029;52.568;13.588;2022-09-12T10:33:20;3.33;;;1.80;;
68976;SDS011;56029;52.568;13.588;2022-09-12T10:35:49;2.33;;;1.73;;
68976;SDS011;56029;52.568;13.588;2022-09-12T10:38:27;2.85;;;1.70;;
68976;SDS011;56029;52.568;13.588;2022-09-12T10:40:57;2.83;;;1.43;;
68976;SDS011;56029;52.568;13.588;2022-09-12T10:43:40;2.90;;;1.85;;
68976;SDS011;56029;52.568;13.588;2022-09-12T10:48:41;3.53;;;2.03;;
68976;SDS011;56029;52.568;13.588;2022-09-12T10:53:58;2.50;;;1.90;;
68976;SDS011;56029;52.568;13.588;2022-09-12T10:56:28;2.75;;;1.80;;
68976;SDS011;56029;52.568;13.588;2022-09-12T11:01:58;3.58;;;1.90;;
68976;SDS011;56029;52.568;13.588;2022-09-12T11:04:52;1.90;;;1.60;;
68976;SDS011;56029;52.568;13.588;2022-09-12T11:07:45;2.27;;;1.53;;
68976;SDS011;56029;52.568;13.588;2022-09-12T11:13:11;3.08;;;1.73;;
68976;SDS011;56029;52.568;13.588;2022-09-12T11:24:33;2.80;;;1.50;;
68976;SDS011;56029;52.568;13.588;2022-09-12T11:29:57;2.30;;;1.70;;
68976;SDS011;56029;52.568;13.588;2022-09-12T11:32:31;2.58;;;1.60;;
68976;SDS011;56029;52.568;13.588;2022-09-12T11:43:06;1.80;;;1.50;;
68976;SDS011;56029;52.568;13.588;2022-09-12T11:45:46;2.85;;;1.75;;
68976;SDS011;56029;52.568;13.588;2022-09-12T11:51:15;2.60;;;1.60;;
68976;SDS011;56029;52.568;13.588;2022-09-12T11:53:53;2.75;;;1.77;;
68976;SDS011;56029;52.568;13.588;2022-09-12T11:56:24;2.90;;;1.65;;
68976;SDS011;56029;52.568;13.588;2022-09-12T11:58:56;2.92;;;1.52;;
68976;SDS011;56029;52.568;13.588;2022-09-12T12:01:30;3.13;;;1.50;;
68976;SDS011;56029;52.568;13.588;2022-09-12T12:04:00;3.35;;;1.60;;
68976;SDS011;56029;52.568;13.588;2022-09-12T12:06:55;2.50;;;1.58;;
68976;SDS011;56029;52.568;13.588;2022-09-12T12:09:30;2.22;;;1.40;;
68976;SDS011;56029;52.568;13.588;2022-09-12T12:11:56;2.13;;;1.50;;
68976;SDS011;56029;52.568;13.588;2022-09-12T12:14:43;1.60;;;1.40;;
68976;SDS011;56029;52.568;13.588;2022-09-12T12:17:17;2.35;;;1.52;;
68976;SDS011;56029;52.568;13.588;2022-09-12T12:19:46;2.20;;;1.42;;
68976;SDS011;56029;52.568;13.588;2022-09-12T12:22:21;2.35;;;1.48;;
68976;SDS011;56029;52.568;13.588;2022-09-12T12:38:00;3.37;;;1.80;;
68976;SDS011;56029;52.568;13.588;2022-09-12T12:40:27;3.03;;;1.90;;
68976;SDS011;56029;52.568;13.588;2022-09-12T12:42:57;3.45;;;1.80;;
68976;SDS011;56029;52.568;13.588;2022-09-12T12:47:52;3.40;;;2.20;;
68976;SDS011;56029;52.568;13.588;2022-09-12T12:50:25;2.55;;;1.95;;
68976;SDS011;56029;52.568;13.588;2022-09-12T12:52:54;3.15;;;1.80;;
68976;SDS011;56029;52.568;13.588;2022-09-12T12:55:24;2.57;;;1.80;;
68976;SDS011;56029;52.568;13.588;2022-09-12T12:57:54;3.58;;;1.70;;
68976;SDS011;56029;52.568;13.588;2022-09-12T13:00:25;2.08;;;1.63;;
68976;SDS011;56029;52.568;13.588;2022-09-12T13:05:43;2.97;;;1.60;;
68976;SDS011;56029;52.568;13.588;2022-09-12T13:10:59;2.25;;;1.52;;
68976;SDS011;56029;52.568;13.588;2022-09-12T13:13:29;2.10;;;1.70;;
68976;SDS011;56029;52.568;13.588;2022-09-12T13:15:59;2.85;;;1.70;;
68976;SDS011;56029;52.568;13.588;2022-09-12T13:18:47;2.60;;;1.60;;
68976;SDS011;56029;52.568;13.588;2022-09-12T13:21:13;2.85;;;1.90;;
68976;SDS011;56029;52.568;13.588;2022-09-12T13:23:40;3.10;;;1.88;;
68976;SDS011;56029;52.568;13.588;2022-09-12T13:26:12;3.50;;;1.80;;
68976;SDS011;56029;52.568;13.588;2022-09-12T13:28:45;3.17;;;1.98;;
68976;SDS011;56029;52.568;13.588;2022-09-12T13:31:21;3.05;;;1.80;;
68976;SDS011;56029;52.568;13.588;2022-09-12T13:33:51;3.43;;;1.70;;
68976;SDS011;56029;52.568;13.588;2022-09-12T13:36:22;4.22;;;1.77;;
68976;SDS011;56029;52.568;13.588;2022-09-12T13:42:02;2.13;;;1.55;;
68976;SDS011;56029;52.568;13.588;2022-09-12T13:44:45;2.65;;;1.70;;
68976;SDS011;56029;52.568;13.588;2022-09-12T13:47:15;2.77;;;1.70;;
68976;SDS011;56029;52.568;13.588;2022-09-12T13:49:49;2.75;;;1.80;;
68976;SDS011;56029;52.568;13.588;2022-09-12T13:52:22;2.70;;;1.63;;
68976;SDS011;56029;52.568;13.588;2022-09-12T13:54:52;2.45;;;1.70;;
68976;SDS011;56029;52.568;13.588;2022-09-12T13:57:27;3.38;;;1.83;;
68976;SDS011;56029;52.568;13.588;2022-09-12T13:59:55;4.00;;;1.80;;
68976;SDS011;56029;52.568;13.588;2022-09-12T14:02:23;2.85;;;2.00;;
68976;SDS011;56029;52.568;13.588;2022-09-12T14:04:51;2.85;;;1.80;;
68976;SDS011;56029;52.568;13.588;2022-09-12T14:08:00;2.90;;;1.90;;
68976;SDS011;56029;52.568;13.588;2022-09-12T14:10:39;3.17;;;1.80;;
68976;SDS011;56029;52.568;13.588;2022-09-12T14:13:18;2.93;;;1.87;;
68976;SDS011;56029;52.568;13.588;2022-09-12T14:15:46;2.75;;;1.73;;
68976;SDS011;56029;52.568;13.588;2022-09-12T14:18:21;2.90;;;1.90;;
68976;SDS011;56029;52.568;13.588;2022-09-12T14:23:29;2.67;;;1.90;;
68976;SDS011;56029;52.568;13.588;2022-09-12T14:25:57;3.50;;;2.10;;
68976;SDS011;56029;52.568;13.588;2022-09-12T14:28:26;2.45;;;1.90;;
68976;SDS011;56029;52.568;13.588;2022-09-12T14:31:05;3.10;;;2.08;;
68976;SDS011;56029;52.568;13.588;2022-09-12T14:33:32;2.95;;;2.00;;
68976;SDS011;56029;52.568;13.588;2022-09-12T14:36:14;2.20;;;1.83;;
68976;SDS011;56029;52.568;13.588;2022-09-12T14:38:45;3.50;;;1.70;;
68976;SDS011;56029;52.568;13.588;2022-09-12T14:41:13;3.67;;;1.92;;
68976;SDS011;56029;52.568;13.588;2022-09-12T14:43:49;3.00;;;1.92;;
68976;SDS011;56029;52.568;13.588;2022-09-12T14:46:18;3.85;;;2.10;;
68976;SDS011;56029;52.568;13.588;2022-09-12T14:48:50;3.72;;;2.00;;
68976;SDS011;56029;52.568;13.588;2022-09-12T14:51:21;3.47;;;1.80;;
68976;SDS011;56029;52.568;13.588;2022-09-12T14:57:02;2.85;;;2.00;;
68976;SDS011;56029;52.568;13.588;2022-09-12T15:04:44;3.13;;;1.80;;
68976;SDS011;56029;52.568;13.588;2022-09-12T15:09:58;2.67;;;1.95;;
68976;SDS011;56029;52.568;13.588;2022-09-12T15:12:26;2.92;;;1.90;;
68976;SDS011;56029;52.568;13.588;2022-09-12T15:14:52;3.53;;;1.90;;
68976;SDS011;56029;52.568;13.588;2022-09-12T15:17:22;4.05;;;1.98;;
68976;SDS011;56029;52.568;13.588;2022-09-12T15:19:48;2.45;;;1.90;;
68976;SDS011;56029;52.568;13.588;2022-09-12T15:22:13;2.57;;;1.80;;
68976;SDS011;56029;52.568;13.588;2022-09-12T15:24:39;3.40;;;2.10;;
68976;SDS011;56029;52.568;13.588;2022-09-12T15:27:09;4.03;;;1.70;;
68976;SDS011;56029;52.568;13.588;2022-09-12T15:29:36;2.92;;;1.80;;
68976;SDS011;56029;52.568;13.588;2022-09-12T15:32:02;2.67;;;1.60;;
68976;SDS011;56029;52.568;13.588;2022-09-12T15:34:28;3.08;;;1.90;;
68976;SDS011;56029;52.568;13.588;2022-09-12T15:36:54;2.53;;;1.70;;
68976;SDS011;56029;52.568;13.588;2022-09-12T15:39:19;2.93;;;1.77;;
68976;SDS011;56029;52.568;13.588;2022-09-12T15:41:45;2.53;;;1.70;;
68976;SDS011;56029;52.568;13.588;2022-09-12T15:44:11;2.27;;;1.60;;
68976;SDS011;56029;52.568;13.588;2022-09-12T15:46:38;2.33;;;1.80;;
68976;SDS011;56029;52.568;13.588;2022-09-12T15:49:04;2.92;;;1.80;;
68976;SDS011;56029;52.568;13.588;2022-09-12T15:51:29;2.83;;;1.70;;
68976;SDS011;56029;52.568;13.588;2022-09-12T15:53:54;3.40;;;1.70;;
68976;SDS011;56029;52.568;13.588;2022-09-12T15:56:21;3.13;;;2.22;;
68976;SDS011;56029;52.568;13.588;2022-09-12T15:58:47;4.30;;;1.80;;
68976;SDS011;56029;52.568;13.588;2022-09-12T16:01:13;2.73;;;1.70;;
68976;SDS011;56029;52.568;13.588;2022-09-12T16:03:41;2.55;;;1.70;;
68976;SDS011;56029;52.568;13.588;2022-09-12T16:06:06;3.03;;;1.90;;
68976;SDS011;56029;52.568;13.588;2022-09-12T16:08:33;2.78;;;1.83;;
68976;SDS011;56029;52.568;13.588;2022-09-12T16:11:03;3.23;;;1.90;;
68976;SDS011;56029;52.568;13.588;2022-09-12T16:13:32;2.67;;;2.00;;
68976;SDS011;56029;52.568;13.588;2022-09-12T16:15:58;4.33;;;2.10;;
68976;SDS011;56029;52.568;13.588;2022-09-12T16:18:25;2.57;;;2.00;;
68976;SDS011;56029;52.568;13.588;2022-09-12T16:20:52;2.42;;;1.80;;
68976;SDS011;56029;52.568;13.588;2022-09-12T16:23:18;2.80;;;1.92;;
68976;SDS011;56029;52.568;13.588;2022-09-12T16:25:44;2.88;;;1.83;;
68976;SDS011;56029;52.568;13.588;2022-09-12T16:28:10;3.43;;;1.90;;
68976;SDS011;56029;52.568;13.588;2022-09-12T16:30:36;3.30;;;2.00;;
68976;SDS011;56029;52.568;13.588;2022-09-12T16:33:02;5.37;;;2.10;;
68976;SDS011;56029;52.568;13.588;2022-09-12T16:35:29;10.65;;;2.67;;
68976;SDS011;56029;52.568;13.588;2022-09-12T16:37:55;19.00;;;4.05;;
68976;SDS011;56029;52.568;13.588;2022-09-12T16:40:21;5.67;;;2.60;;
68976;SDS011;56029;52.568;13.588;2022-09-12T16:42:47;7.00;;;2.70;;
68976;SDS011;56029;52.568;13.588;2022-09-12T16:45:13;16.25;;;3.38;;
68976;SDS011;56029;52.568;13.588;2022-09-12T16:47:39;12.57;;;2.90;;
68976;SDS011;56029;52.568;13.588;2022-09-12T16:50:05;10.33;;;2.90;;
68976;SDS011;56029;52.568;13.588;2022-09-12T16:52:32;9.32;;;2.90;;
68976;SDS011;56029;52.568;13.588;2022-09-12T16:54:59;10.47;;;2.87;;
68976;SDS011;56029;52.568;13.588;2022-09-12T16:57:24;12.43;;;2.75;;
68976;SDS011;56029;52.568;13.588;2022-09-12T16:59:49;7.47;;;2.83;;
68976;SDS011;56029;52.568;13.588;2022-09-12T17:02:15;5.35;;;2.50;;
68976;SDS011;56029;52.568;13.588;2022-09-12T17:04:41;5.73;;;2.50;;
68976;SDS011;56029;52.568;13.588;2022-09-12T17:07:06;12.93;;;6.27;;
68976;SDS011;56029;52.568;13.588;2022-09-12T17:09:33;8.07;;;4.47;;
68976;SDS011;56029;52.568;13.588;2022-09-12T17:11:59;8.43;;;3.30;;
68976;SDS011;56029;52.568;13.588;2022-09-12T17:14:25;5.57;;;3.07;;
68976;SDS011;56029;52.568;13.588;2022-09-12T17:16:51;6.13;;;2.70;;